createdAt,value
2022-11-12T00:01:08.850Z,11.03
2022-11-12T00:03:36.387Z,10.57
2022-11-12T00:06:03.990Z,11.07
2022-11-12T00:08:31.524Z,11.57
2022-11-12T00:10:59.060Z,10.73
2022-11-12T00:13:26.611Z,11.73
2022-11-12T00:15:54.145Z,12.00
2022-11-12T00:18:21.680Z,11.93
2022-11-12T00:20:50.041Z,10.93
2022-11-12T00:23:17.578Z,11.00
2022-11-12T00:25:45.121Z,11.33
2022-11-12T00:28:12.676Z,15.63
2022-11-12T00:30:40.209Z,13.53
2022-11-12T00:33:07.768Z,12.97
2022-11-12T00:35:36.282Z,13.77
2022-11-12T00:38:03.806Z,13.63
2022-11-12T00:40:31.371Z,15.47
2022-11-12T00:42:58.895Z,13.10
2022-11-12T00:45:26.468Z,11.80
2022-11-12T00:47:54.773Z,12.60
2022-11-12T00:50:22.363Z,12.07
2022-11-12T00:52:50.503Z,12.63
2022-11-12T00:55:17.958Z,12.47
2022-11-12T00:57:45.512Z,11.80
2022-11-12T01:00:13.213Z,12.53
2022-11-12T01:02:45.291Z,12.17
2022-11-12T01:05:08.324Z,10.30
2022-11-12T01:07:35.850Z,10.70
2022-11-12T01:10:03.393Z,9.40
2022-11-12T01:12:31.731Z,11.37
2022-11-12T01:14:59.312Z,11.57
2022-11-12T01:17:26.836Z,14.50
2022-11-12T01:19:54.435Z,12.00
2022-11-12T01:22:21.983Z,9.67
2022-11-12T01:24:49.496Z,11.27
2022-11-12T01:27:17.063Z,8.37
2022-11-12T01:29:44.586Z,7.67
2022-11-12T01:32:12.891Z,7.63
2022-11-12T01:34:40.444Z,7.90
2022-11-12T01:37:07.979Z,7.60
2022-11-12T01:39:36.281Z,8.50
2022-11-12T01:42:03.865Z,7.60
2022-11-12T01:44:31.400Z,7.33
2022-11-12T01:47:08.192Z,6.23
2022-11-12T01:49:35.770Z,6.43
2022-11-12T01:52:03.294Z,5.37
2022-11-12T01:54:30.842Z,5.00
2022-11-12T01:56:58.525Z,5.17
2022-11-12T01:59:28.719Z,5.00
2022-11-12T02:01:56.248Z,5.40
2022-11-12T02:04:23.808Z,4.80
2022-11-12T02:06:51.392Z,5.60
2022-11-12T02:09:18.876Z,5.20
2022-11-12T02:11:46.460Z,7.20
2022-11-12T02:14:13.996Z,6.40
2022-11-12T02:16:41.544Z,6.00
2022-11-12T02:19:09.718Z,6.20
2022-11-12T02:21:37.242Z,5.73
2022-11-12T02:24:05.535Z,6.40
2022-11-12T02:26:33.077Z,5.87
2022-11-12T02:29:01.377Z,6.20
2022-11-12T02:31:28.907Z,6.90
2022-11-12T02:33:57.251Z,6.60
2022-11-12T02:36:24.789Z,6.47
2022-11-12T02:38:52.335Z,7.40
2022-11-12T02:41:19.912Z,6.77
2022-11-12T02:43:47.452Z,6.60
2022-11-12T02:46:14.978Z,6.30
2022-11-12T02:48:43.310Z,7.70
2022-11-12T02:51:10.846Z,7.23
2022-11-12T02:53:38.391Z,7.03
2022-11-12T02:56:06.711Z,7.20
2022-11-12T02:58:34.303Z,7.70
2022-11-12T03:01:01.901Z,6.77
2022-11-12T03:03:29.669Z,7.43
2022-11-12T03:05:57.240Z,7.43
2022-11-12T03:08:25.247Z,7.00
2022-11-12T03:10:52.339Z,6.10
2022-11-12T03:13:19.876Z,6.30
2022-11-12T03:15:48.186Z,6.17
2022-11-12T03:18:16.081Z,6.33
2022-11-12T03:20:43.629Z,6.37
2022-11-12T03:23:11.140Z,6.27
2022-11-12T03:25:40.154Z,5.70
2022-11-12T03:28:07.681Z,6.73
2022-11-12T03:30:35.206Z,6.87
2022-11-12T03:33:02.765Z,6.37
2022-11-12T03:35:30.283Z,6.27
2022-11-12T03:37:58.566Z,6.30
2022-11-12T03:40:26.133Z,5.70
2022-11-12T03:42:53.658Z,5.97
2022-11-12T03:45:21.940Z,5.60
2022-11-12T03:47:50.965Z,5.33
2022-11-12T03:50:18.488Z,5.27
2022-11-12T03:52:46.825Z,5.30
2022-11-12T03:55:14.389Z,5.73
2022-11-12T03:57:41.922Z,4.87
2022-11-12T04:00:09.691Z,6.70
2022-11-12T04:02:37.246Z,5.17
2022-11-12T04:05:22.686Z,5.33
2022-11-12T04:08:02.680Z,5.23
2022-11-12T04:10:30.205Z,5.13
2022-11-12T04:13:16.812Z,5.03
2022-11-12T04:15:45.115Z,5.03
2022-11-12T04:18:30.988Z,5.20
2022-11-12T04:21:16.444Z,5.63
2022-11-12T04:23:44.775Z,4.30
2022-11-12T04:26:24.361Z,4.70
2022-11-12T04:29:10.888Z,4.47
2022-11-12T04:31:38.457Z,4.53
2022-11-12T04:34:25.110Z,4.93
2022-11-12T04:36:52.602Z,5.00
2022-11-12T04:39:20.138Z,5.77
2022-11-12T04:42:06.115Z,6.07
2022-11-12T04:44:51.534Z,5.27
2022-11-12T04:47:19.084Z,5.10
2022-11-12T04:49:47.394Z,4.73
2022-11-12T04:52:14.927Z,4.43
2022-11-12T04:54:42.478Z,5.07
2022-11-12T04:57:10.776Z,4.43
2022-11-12T04:59:38.300Z,5.03
2022-11-12T05:02:06.652Z,4.70
2022-11-12T05:04:34.184Z,4.83
2022-11-12T05:07:01.779Z,5.13
2022-11-12T05:09:29.316Z,5.23
2022-11-12T05:11:56.840Z,5.30
2022-11-12T05:14:24.374Z,5.73
2022-11-12T05:16:53.854Z,5.93
2022-11-12T05:19:21.377Z,4.57
2022-11-12T05:21:51.361Z,6.85
2022-11-12T05:24:40.391Z,5.83
2022-11-12T05:26:47.209Z,6.30
2022-11-12T05:29:14.735Z,5.33
2022-11-12T05:31:42.338Z,5.83
2022-11-12T05:34:09.875Z,5.77
2022-11-12T05:36:38.160Z,5.63
2022-11-12T05:39:05.725Z,5.67
2022-11-12T05:41:57.942Z,5.47
2022-11-12T05:44:00.790Z,5.50
2022-11-12T05:46:29.337Z,6.30
2022-11-12T05:48:56.862Z,6.30
2022-11-12T05:51:25.158Z,5.40
2022-11-12T05:53:52.721Z,5.83
2022-11-12T05:56:20.268Z,5.13
2022-11-12T05:58:48.578Z,5.03
2022-11-12T06:01:16.146Z,4.90
2022-11-12T06:03:43.681Z,4.70
2022-11-12T06:06:11.205Z,4.37
2022-11-12T06:08:39.646Z,4.77
2022-11-12T06:11:07.199Z,4.53
2022-11-12T06:13:35.806Z,5.20
2022-11-12T06:16:03.370Z,4.70
2022-11-12T06:18:30.915Z,6.07
2022-11-12T06:21:19.624Z,5.90
2022-11-12T06:23:47.169Z,5.17
2022-11-12T06:26:15.453Z,4.80
2022-11-12T06:28:43.089Z,4.97
2022-11-12T06:31:10.558Z,5.30
2022-11-12T06:33:38.086Z,5.43
2022-11-12T06:36:05.720Z,5.20
2022-11-12T06:38:33.322Z,5.40
2022-11-12T06:41:00.837Z,5.43
2022-11-12T06:43:29.309Z,6.13
2022-11-12T06:45:59.736Z,7.50
2022-11-12T06:48:27.492Z,6.53
2022-11-12T06:50:54.873Z,6.90
2022-11-12T06:53:22.429Z,6.17
2022-11-12T06:55:49.981Z,5.50
2022-11-12T06:58:17.948Z,5.00
2022-11-12T07:00:45.497Z,8.20
2022-11-12T07:03:13.044Z,5.90
2022-11-12T07:05:40.629Z,9.17
2022-11-12T07:08:08.175Z,5.63
2022-11-12T07:10:35.696Z,4.57
2022-11-12T07:13:04.012Z,4.70
2022-11-12T07:15:31.548Z,5.27
2022-11-12T07:17:59.870Z,5.40
2022-11-12T07:20:27.443Z,6.17
2022-11-12T07:22:54.976Z,7.30
2022-11-12T07:25:22.521Z,7.03
2022-11-12T07:27:50.088Z,5.37
2022-11-12T07:30:17.620Z,4.30
2022-11-12T07:32:51.669Z,4.73
2022-11-12T07:35:13.624Z,5.00
2022-11-12T07:37:41.166Z,4.53
2022-11-12T07:40:08.782Z,4.63
2022-11-12T07:42:37.443Z,5.80
2022-11-12T07:45:05.223Z,5.57
2022-11-12T07:47:33.533Z,5.07
2022-11-12T07:50:01.106Z,5.93
2022-11-12T07:52:28.637Z,4.83
2022-11-12T07:54:56.168Z,4.93
2022-11-12T07:57:24.570Z,7.33
2022-11-12T07:59:52.109Z,6.87
2022-11-12T08:02:20.418Z,4.70
2022-11-12T08:04:48.302Z,4.80
2022-11-12T08:07:15.945Z,4.73
2022-11-12T08:09:44.096Z,5.10
2022-11-12T08:12:12.447Z,5.47
2022-11-12T08:14:39.985Z,5.13
2022-11-12T08:17:07.520Z,4.77
2022-11-12T08:19:35.190Z,5.93
2022-11-12T08:22:02.715Z,6.07
2022-11-12T08:24:30.257Z,7.13
2022-11-12T08:26:58.599Z,6.20
2022-11-12T08:29:26.135Z,5.63
2022-11-12T08:31:53.646Z,4.77
2022-11-12T08:34:22.935Z,4.30
2022-11-12T08:36:50.343Z,4.00
2022-11-12T08:39:17.890Z,4.30
2022-11-12T08:41:45.499Z,4.47
2022-11-12T08:44:13.024Z,4.40
2022-11-12T08:46:40.567Z,4.80
2022-11-12T08:49:08.141Z,4.83
2022-11-12T08:51:35.680Z,4.60
2022-11-12T08:54:03.214Z,4.67
2022-11-12T08:56:30.782Z,3.70
2022-11-12T08:58:59.074Z,5.23
2022-11-12T09:01:26.660Z,4.73
2022-11-12T09:03:54.187Z,3.73
2022-11-12T09:06:22.475Z,3.53
2022-11-12T09:08:49.998Z,3.03
2022-11-12T09:11:17.918Z,3.83
2022-11-12T09:13:45.514Z,3.40
2022-11-12T09:16:16.482Z,3.87
2022-11-12T09:18:45.462Z,3.83
2022-11-12T09:21:13.003Z,3.40
2022-11-12T09:23:40.544Z,5.03
2022-11-12T09:26:09.108Z,4.40
2022-11-12T09:28:36.589Z,4.50
2022-11-12T09:31:04.139Z,4.77
2022-11-12T09:33:32.007Z,3.93
2022-11-12T09:36:02.391Z,4.60
2022-11-12T09:38:30.678Z,4.97
2022-11-12T09:41:04.199Z,3.90
2022-11-12T09:43:40.668Z,3.93
2022-11-12T09:46:27.113Z,4.50
2022-11-12T09:48:40.988Z,4.30
2022-11-12T09:51:11.654Z,5.37
2022-11-12T09:53:57.561Z,6.20
2022-11-12T09:56:25.076Z,5.43
2022-11-12T09:58:52.621Z,6.07
2022-11-12T10:01:41.363Z,7.20
2022-11-12T10:04:23.500Z,5.23
2022-11-12T10:06:51.155Z,4.80
2022-11-12T10:09:21.244Z,5.00
2022-11-12T10:12:13.474Z,4.63
2022-11-12T10:15:24.605Z,4.50
2022-11-12T10:18:16.160Z,3.90
2022-11-12T10:20:49.474Z,4.20
2022-11-12T10:23:23.547Z,5.07
2022-11-12T10:25:51.082Z,4.43
2022-11-12T10:28:21.539Z,5.78
2022-11-12T10:30:49.112Z,5.40
2022-11-12T10:33:16.636Z,5.17
2022-11-12T10:35:44.180Z,6.28
2022-11-12T10:38:16.521Z,5.43
2022-11-12T10:40:43.986Z,6.03
2022-11-12T10:43:18.007Z,5.20
2022-11-12T10:45:45.611Z,5.40
2022-11-12T10:48:27.476Z,5.43
2022-11-12T10:50:53.437Z,5.27
2022-11-12T10:53:32.698Z,5.27
2022-11-12T10:56:01.082Z,6.47
2022-11-12T10:58:29.738Z,5.17
2022-11-12T11:00:59.945Z,5.20
2022-11-12T11:03:30.674Z,5.30
2022-11-12T11:06:04.209Z,6.83
2022-11-12T11:08:44.417Z,5.93
2022-11-12T11:11:14.612Z,6.57
2022-11-12T11:13:42.139Z,5.60
2022-11-12T11:16:15.427Z,5.07
2022-11-12T11:18:42.947Z,5.30
2022-11-12T11:21:40.742Z,4.23
2022-11-12T11:24:38.926Z,4.43
2022-11-12T11:27:18.892Z,5.90
2022-11-12T11:30:06.562Z,6.35
2022-11-12T11:33:04.315Z,5.03
2022-11-12T11:35:50.138Z,4.60
2022-11-12T11:38:36.117Z,5.20
2022-11-12T11:41:18.322Z,5.40
2022-11-12T11:43:51.878Z,6.10
2022-11-12T11:46:37.661Z,6.20
2022-11-12T11:49:17.988Z,5.27
2022-11-12T11:51:51.765Z,6.40
2022-11-12T11:54:53.210Z,5.97
2022-11-12T11:57:23.271Z,5.30
2022-11-12T12:00:08.998Z,5.80
2022-11-12T12:02:51.283Z,6.90
2022-11-12T12:05:37.254Z,6.47
2022-11-12T12:08:13.904Z,5.70
2022-11-12T12:11:07.441Z,5.60
2022-11-12T12:13:29.775Z,6.00
2022-11-12T12:16:34.864Z,6.33
2022-11-12T12:19:07.835Z,6.33
2022-11-12T12:21:35.529Z,7.28
2022-11-12T12:24:09.791Z,7.45
2022-11-12T12:26:47.268Z,5.93
2022-11-12T12:29:23.762Z,5.47
2022-11-12T12:31:52.099Z,5.97
2022-11-12T12:34:25.283Z,6.20
2022-11-12T12:36:54.615Z,6.43
2022-11-12T12:39:30.834Z,6.33
2022-11-12T12:42:05.308Z,6.20
2022-11-12T12:44:41.457Z,5.80
2022-11-12T12:47:09.041Z,6.67
2022-11-12T12:49:36.594Z,6.40
2022-11-12T12:52:04.130Z,6.30
2022-11-12T12:54:38.140Z,6.43
2022-11-12T12:57:05.674Z,6.40
2022-11-12T12:59:33.217Z,6.40
2022-11-12T13:02:00.794Z,6.73
2022-11-12T13:04:50.800Z,6.60
2022-11-12T13:07:18.486Z,6.57
2022-11-12T13:09:45.940Z,6.47
2022-11-12T13:12:13.472Z,6.43
2022-11-12T13:14:41.053Z,6.47
2022-11-12T13:17:08.613Z,6.73
2022-11-12T13:19:36.155Z,6.70
2022-11-12T13:22:18.832Z,6.50
2022-11-12T13:25:04.754Z,7.37
2022-11-12T13:27:41.268Z,9.15
2022-11-12T13:30:14.489Z,7.57
2022-11-12T13:32:44.607Z,7.50
2022-11-12T13:35:30.796Z,7.12
2022-11-12T13:38:01.128Z,6.50
2022-11-12T13:40:53.721Z,6.57
2022-11-12T13:43:29.702Z,6.10
2022-11-12T13:46:11.896Z,7.00
2022-11-12T13:48:44.913Z,6.33
2022-11-12T13:51:40.228Z,6.37
2022-11-12T13:54:34.992Z,6.97
2022-11-12T13:57:20.405Z,6.23
2022-11-12T13:59:48.694Z,6.60
2022-11-12T14:02:25.912Z,8.83
2022-11-12T14:04:53.454Z,8.50
2022-11-12T14:07:51.547Z,8.27
2022-11-12T14:10:33.787Z,11.20
2022-11-12T14:13:25.965Z,10.37
2022-11-12T14:16:24.378Z,8.73
2022-11-12T14:19:16.099Z,7.90
2022-11-12T14:21:43.634Z,7.37
2022-11-12T14:24:11.187Z,9.68
2022-11-12T14:26:38.772Z,8.37
2022-11-12T14:29:06.306Z,8.57
2022-11-12T14:31:33.859Z,9.45
2022-11-12T14:34:20.233Z,8.23
2022-11-12T14:36:47.784Z,8.80
2022-11-12T14:39:15.350Z,8.57
2022-11-12T14:41:42.943Z,8.83
2022-11-12T14:44:13.418Z,14.48
2022-11-12T14:46:47.054Z,10.63
2022-11-12T14:49:17.742Z,10.80
2022-11-12T14:51:47.899Z,10.60
2022-11-12T14:54:15.466Z,12.13
2022-11-12T14:56:45.706Z,10.20
2022-11-12T14:59:13.241Z,9.73
2022-11-12T15:02:21.697Z,10.37
2022-11-12T15:04:13.215Z,9.47
2022-11-12T15:06:40.779Z,11.00
2022-11-12T15:09:08.288Z,9.23
2022-11-12T15:11:47.659Z,8.30
2022-11-12T15:14:21.230Z,10.65
2022-11-12T15:16:49.529Z,9.53
2022-11-12T15:19:25.910Z,9.27
2022-11-12T15:21:55.944Z,8.77
2022-11-12T15:24:35.232Z,9.73
2022-11-12T15:27:03.530Z,9.17
2022-11-12T15:29:33.927Z,8.73
2022-11-12T15:32:13.941Z,8.53
2022-11-12T15:34:41.902Z,8.67
2022-11-12T15:37:10.264Z,8.83
2022-11-12T15:39:40.763Z,9.20
2022-11-12T15:42:14.934Z,10.10
2022-11-12T15:44:42.437Z,8.80
2022-11-12T15:47:10.972Z,11.37
2022-11-12T15:49:38.496Z,11.07
2022-11-12T15:52:06.058Z,10.50
2022-11-12T15:54:38.155Z,10.13
2022-11-12T15:57:01.175Z,10.47
2022-11-12T15:59:28.726Z,10.13
2022-11-12T16:01:56.319Z,10.87
2022-11-12T16:04:23.859Z,9.60
2022-11-12T16:06:51.418Z,9.60
2022-11-12T16:09:19.773Z,9.90
2022-11-12T16:11:48.094Z,9.17
2022-11-12T16:14:15.618Z,9.53
2022-11-12T16:16:43.222Z,10.37
2022-11-12T16:19:16.001Z,9.03
2022-11-12T16:21:43.535Z,8.83
2022-11-12T16:24:11.104Z,9.53
2022-11-12T16:26:38.634Z,9.13
2022-11-12T16:29:12.346Z,9.40
2022-11-12T16:31:40.836Z,10.20
2022-11-12T16:34:08.371Z,9.80
2022-11-12T16:36:35.915Z,10.30
2022-11-12T16:39:05.262Z,9.97
2022-11-12T16:41:32.709Z,9.77
2022-11-12T16:44:00.246Z,8.53
2022-11-12T16:46:31.813Z,7.93
2022-11-12T16:48:59.347Z,8.07
2022-11-12T16:51:27.643Z,8.60
2022-11-12T16:53:55.208Z,7.67
2022-11-12T16:56:22.744Z,7.50
2022-11-12T16:58:51.065Z,8.37
2022-11-12T17:01:27.651Z,7.60
2022-11-12T17:03:55.884Z,7.60
2022-11-12T17:06:23.429Z,7.50
2022-11-12T17:08:54.442Z,8.33
2022-11-12T17:11:21.975Z,9.03
2022-11-12T17:13:49.529Z,10.17
2022-11-12T17:16:17.114Z,11.70
2022-11-12T17:18:44.645Z,13.83
2022-11-12T17:21:12.174Z,12.90
2022-11-12T17:23:39.765Z,9.67
2022-11-12T17:26:07.302Z,9.53
2022-11-12T17:28:34.832Z,10.70
2022-11-12T17:31:03.184Z,8.70
2022-11-12T17:33:30.793Z,9.20
2022-11-12T17:36:00.946Z,9.70
2022-11-12T17:38:28.537Z,7.83
2022-11-12T17:40:59.535Z,8.40
2022-11-12T17:43:27.167Z,8.03
2022-11-12T17:45:54.588Z,7.83
2022-11-12T17:48:22.104Z,8.97
2022-11-12T17:50:49.629Z,9.07
2022-11-12T17:53:19.192Z,9.60
2022-11-12T17:55:46.737Z,8.47
2022-11-12T17:58:14.262Z,8.50
2022-11-12T18:00:41.846Z,7.80
2022-11-12T18:03:09.376Z,7.87
2022-11-12T18:05:37.677Z,7.13
2022-11-12T18:08:06.144Z,8.20
2022-11-12T18:10:33.666Z,10.37
2022-11-12T18:13:01.218Z,11.03
2022-11-12T18:15:28.794Z,11.57
2022-11-12T18:17:57.098Z,13.27
2022-11-12T18:20:24.632Z,11.17
2022-11-12T18:22:53.891Z,10.57
2022-11-12T18:25:21.421Z,9.93
2022-11-12T18:27:48.970Z,10.27
2022-11-12T18:30:19.490Z,9.30
2022-11-12T18:32:44.830Z,10.33
2022-11-12T18:35:12.359Z,9.80
2022-11-12T18:37:40.787Z,9.30
2022-11-12T18:40:08.451Z,8.47
2022-11-12T18:42:35.985Z,9.83
2022-11-12T18:45:03.593Z,10.38
2022-11-12T18:47:31.152Z,8.27
2022-11-12T18:49:58.818Z,10.35
2022-11-12T18:52:26.454Z,9.53
2022-11-12T18:54:53.833Z,10.77
2022-11-12T18:57:21.368Z,11.27
2022-11-12T18:59:48.942Z,10.33
2022-11-12T19:02:16.467Z,15.63
2022-11-12T19:04:45.543Z,16.25
2022-11-12T19:07:11.614Z,12.63
2022-11-12T19:09:39.115Z,13.83
2022-11-12T19:12:06.641Z,10.53
2022-11-12T19:14:34.291Z,13.53
2022-11-12T19:17:01.815Z,11.97
2022-11-12T19:19:29.363Z,10.57
2022-11-12T19:21:56.934Z,11.23
2022-11-12T19:24:24.488Z,10.30
2022-11-12T19:26:52.023Z,10.80
2022-11-12T19:29:19.608Z,10.97
2022-11-12T19:31:47.147Z,10.53
2022-11-12T19:34:14.837Z,10.63
2022-11-12T19:36:42.451Z,13.10
2022-11-12T19:39:09.943Z,13.97
2022-11-12T19:41:37.469Z,16.20
2022-11-12T19:44:05.821Z,14.33
2022-11-12T19:46:33.348Z,12.60
2022-11-12T19:49:00.873Z,15.77
2022-11-12T19:51:28.436Z,13.47
2022-11-12T19:53:55.974Z,13.03
2022-11-12T19:56:24.285Z,12.20
2022-11-12T19:58:51.860Z,12.10
2022-11-12T20:01:19.529Z,12.20
2022-11-12T20:03:46.921Z,11.63
2022-11-12T20:06:14.514Z,10.90
2022-11-12T20:08:42.041Z,12.00
2022-11-12T20:11:10.356Z,13.17
2022-11-12T20:13:37.935Z,16.73
2022-11-12T20:16:23.857Z,12.37
2022-11-12T20:18:49.820Z,13.13
2022-11-12T20:21:13.612Z,13.17
2022-11-12T20:23:41.129Z,15.00
2022-11-12T20:26:09.476Z,15.23
2022-11-12T20:28:37.017Z,17.55
2022-11-12T20:31:04.547Z,16.60
2022-11-12T20:33:32.134Z,13.63
2022-11-12T20:36:02.892Z,14.27
2022-11-12T20:38:30.643Z,15.43
2022-11-12T20:40:58.073Z,18.05
2022-11-12T20:43:29.165Z,15.17
2022-11-12T20:45:53.134Z,12.93
2022-11-12T20:48:20.689Z,11.97
2022-11-12T20:51:09.565Z,14.30
2022-11-12T20:53:15.758Z,16.97
2022-11-12T20:55:43.370Z,12.50
2022-11-12T20:58:10.890Z,14.70
2022-11-12T21:00:38.440Z,13.17
2022-11-12T21:03:06.029Z,13.70
2022-11-12T21:05:33.565Z,13.37
2022-11-12T21:08:01.132Z,13.57
2022-11-12T21:10:28.686Z,12.73
2022-11-12T21:12:56.226Z,12.43
2022-11-12T21:15:23.749Z,14.27
2022-11-12T21:17:51.335Z,10.70
2022-11-12T21:20:19.629Z,12.33
2022-11-12T21:22:47.174Z,11.50
2022-11-12T21:25:15.365Z,11.93
2022-11-12T21:27:43.864Z,10.77
2022-11-12T21:30:11.435Z,12.83
2022-11-12T21:32:39.010Z,11.30
2022-11-12T21:35:06.681Z,14.98
2022-11-12T21:37:34.230Z,15.18
2022-11-12T21:40:02.816Z,11.50
2022-11-12T21:42:30.355Z,10.53
2022-11-12T21:44:57.879Z,14.27
2022-11-12T21:47:25.463Z,12.57
2022-11-12T21:49:52.989Z,11.53
2022-11-12T21:52:20.514Z,11.63
2022-11-12T21:54:48.091Z,10.73
2022-11-12T21:57:18.884Z,10.30
2022-11-12T21:59:43.957Z,11.77
2022-11-12T22:02:14.496Z,11.53
2022-11-12T22:04:41.971Z,11.30
2022-11-12T22:07:09.560Z,11.83
2022-11-12T22:09:37.100Z,12.95
2022-11-12T22:12:04.688Z,9.30
2022-11-12T22:14:32.997Z,11.03
2022-11-12T22:17:00.570Z,9.70
2022-11-12T22:19:28.097Z,11.07
2022-11-12T22:21:55.628Z,10.80
2022-11-12T22:24:24.253Z,9.67
2022-11-12T22:26:51.785Z,10.03
2022-11-12T22:29:20.244Z,10.87
2022-11-12T22:31:47.812Z,7.87
2022-11-12T22:34:15.335Z,9.97
2022-11-12T22:36:50.614Z,7.60
2022-11-12T22:39:12.539Z,6.57
2022-11-12T22:41:40.415Z,8.97
2022-11-12T22:44:09.871Z,11.00
2022-11-12T22:46:38.406Z,7.70
2022-11-12T22:49:06.968Z,7.30
2022-11-12T22:51:37.605Z,8.20
2022-11-12T22:54:05.760Z,8.55
2022-11-12T22:56:38.392Z,11.70
2022-11-12T22:59:06.178Z,9.00
2022-11-12T23:01:40.982Z,12.25
2022-11-12T23:04:07.433Z,8.33
2022-11-12T23:06:36.047Z,8.83
2022-11-12T23:09:04.917Z,7.60
2022-11-12T23:11:33.507Z,7.00
2022-11-12T23:14:03.109Z,7.23
2022-11-12T23:16:32.919Z,6.43
2022-11-12T23:19:01.703Z,7.10
2022-11-12T23:21:30.287Z,7.37
2022-11-12T23:24:00.123Z,6.97
2022-11-12T23:26:28.661Z,6.47
2022-11-12T23:28:56.453Z,7.60
2022-11-12T23:31:24.172Z,7.30
2022-11-12T23:33:54.310Z,7.53
2022-11-12T23:36:23.484Z,7.10
2022-11-12T23:38:52.389Z,9.48
2022-11-12T23:41:21.577Z,7.37
2022-11-12T23:43:55.600Z,9.98
2022-11-12T23:46:23.930Z,7.93
2022-11-12T23:48:51.485Z,8.27
2022-11-12T23:51:19.010Z,8.63
2022-11-12T23:53:46.600Z,10.32
2022-11-12T23:56:14.144Z,8.93
2022-11-12T23:58:41.680Z,8.50
